Time;durP1;ratioP1;P1;durP2;ratioP2;P2;SDS_P1;SDS_P2;PMS_P1;PMS_P2;Temp;Humidity;BMP_temperature;BMP_pressure;BME280_temperature;BME280_humidity;BME280_pressure;Samples;Min_cycle;Max_cycle;Signal;HPM_P1;HPM_P2
2021/11/26 00:00:05;;;;;;;6.57;1.67;;;;;;;4.90;79.93;100716.28;5035061;28;20456;-60
2021/11/26 00:02:30;;;;;;;4.03;1.75;;;;;;;4.90;80.30;100703.19;5033268;28;20103;-58
2021/11/26 00:04:56;;;;;;;11.65;2.33;;;;;;;4.90;79.88;100711.03;5035464;28;20045;-60
2021/11/26 00:07:22;;;;;;;10.50;2.35;;;;;;;4.90;79.59;100705.81;5037584;28;20048;-59
2021/11/26 00:09:48;;;;;;;8.98;1.98;;;;;;;4.90;79.34;100698.78;5037115;28;20034;-60
2021/11/26 00:12:14;;;;;;;12.25;2.42;;;;;;;4.89;79.19;100688.38;5035117;28;20040;-57
2021/11/26 00:14:52;;;;;;;7.25;1.92;;;;;;;4.84;79.59;100679.91;5037918;28;20036;-60
2021/11/26 00:17:19;;;;;;;12.02;2.30;;;;;;;4.81;79.54;100674.84;5039164;28;20063;-59
2021/11/26 00:19:48;;;;;;;9.00;2.03;;;;;;;4.85;79.11;100668.50;5039441;28;20108;-60
2021/11/26 00:22:15;;;;;;;7.20;1.90;;;;;;;4.86;79.23;100660.53;5044148;28;20029;-58
2021/11/26 00:24:40;;;;;;;6.50;1.85;;;;;;;4.90;79.05;100656.00;5042600;28;20037;-58
2021/11/26 00:27:06;;;;;;;12.73;1.92;;;;;;;4.89;78.40;100662.16;5040420;28;20033;-60
2021/11/26 00:29:31;;;;;;;4.10;1.27;;;;;;;4.91;78.66;100650.66;5045907;28;20033;-59
2021/11/26 00:31:57;;;;;;;9.15;1.63;;;;;;;4.92;78.26;100648.91;5045279;28;20195;-59
2021/11/26 00:34:23;;;;;;;9.00;2.35;;;;;;;4.97;77.67;100639.03;5044373;28;20036;-59
2021/11/26 00:36:48;;;;;;;6.57;1.70;;;;;;;5.06;77.24;100646.38;5040332;28;20440;-59
2021/11/26 00:39:14;;;;;;;8.73;1.77;;;;;;;5.16;76.34;100643.25;5040419;28;20112;-58
2021/11/26 00:41:39;;;;;;;8.98;1.85;;;;;;;5.25;75.95;100632.25;5044018;28;20465;-59
2021/11/26 00:44:05;;;;;;;10.43;1.88;;;;;;;5.36;75.40;100635.13;5037779;28;20033;-58
2021/11/26 00:46:32;;;;;;;10.00;1.90;;;;;;;5.42;74.18;100639.19;5041944;28;20037;-59
2021/11/26 00:48:58;;;;;;;10.32;1.75;;;;;;;5.44;73.98;100646.03;5039397;28;20022;-59
2021/11/26 00:51:23;;;;;;;11.40;2.13;;;;;;;5.44;74.85;100637.34;5042059;28;20043;-59
2021/11/26 00:53:49;;;;;;;13.23;2.17;;;;;;;5.58;73.91;100639.19;5043372;28;20196;-59
2021/11/26 00:56:14;;;;;;;10.52;2.65;;;;;;;5.63;73.87;100636.28;5042179;28;20028;-58
2021/11/26 00:58:39;;;;;;;9.57;1.90;;;;;;;5.60;74.22;100622.44;5041947;28;20381;-58
2021/11/26 01:01:04;;;;;;;10.48;2.30;;;;;;;5.54;73.04;100612.28;5043547;28;20116;-59
2021/11/26 01:03:30;;;;;;;11.35;2.33;;;;;;;5.49;73.66;100605.56;5044632;28;20029;-58
2021/11/26 01:05:55;;;;;;;9.77;2.40;;;;;;;5.50;74.26;100604.66;5044145;28;20087;-58
2021/11/26 01:08:21;;;;;;;10.20;2.17;;;;;;;5.45;74.61;100602.31;5044746;28;20482;-59
2021/11/26 01:10:48;;;;;;;8.05;1.98;;;;;;;5.43;73.50;100593.66;5042870;28;20033;-58
2021/11/26 01:13:14;;;;;;;13.30;2.40;;;;;;;5.38;73.62;100593.91;5038753;28;20040;-60
2021/11/26 01:15:39;;;;;;;8.23;1.85;;;;;;;5.36;74.04;100587.91;5038627;28;20128;-59
2021/11/26 01:18:06;;;;;;;12.98;2.15;;;;;;;5.38;74.32;100582.56;5042907;28;20037;-61
2021/11/26 01:20:33;;;;;;;4.82;1.35;;;;;;;5.36;75.18;100582.66;5039861;28;20420;-60
2021/11/26 01:22:59;;;;;;;7.88;1.85;;;;;;;5.36;75.56;100577.44;5039783;28;20041;-60
2021/11/26 01:25:26;;;;;;;6.55;1.92;;;;;;;5.35;75.79;100575.72;5037991;28;20037;-60
2021/11/26 01:27:52;;;;;;;9.75;2.53;;;;;;;5.34;76.36;100563.53;5041147;28;20028;-59
2021/11/26 01:30:26;;;;;;;8.23;1.80;;;;;;;5.34;76.23;100563.53;5038354;28;20633;-61
2021/11/26 01:32:57;;;;;;;10.13;2.30;;;;;;;5.31;76.92;100554.97;5041843;28;20370;-60
2021/11/26 01:35:23;;;;;;;14.93;2.55;;;;;;;5.32;77.62;100549.69;5041184;28;20580;-60
2021/11/26 01:37:48;;;;;;;11.48;1.45;;;;;;;5.37;76.68;100542.41;5041965;28;20124;-59
2021/11/26 01:40:15;;;;;;;10.63;1.80;;;;;;;5.31;76.33;100550.59;5038603;28;20033;-60
2021/11/26 01:42:40;;;;;;;12.38;1.88;;;;;;;5.28;75.90;100542.91;5036480;28;20032;-59
2021/11/26 01:45:06;;;;;;;10.85;1.95;;;;;;;5.23;75.85;100534.47;5046310;28;20116;-60
2021/11/26 01:47:32;;;;;;;8.10;1.80;;;;;;;5.20;76.45;100535.47;5042074;28;20029;-59
2021/11/26 01:49:57;;;;;;;8.73;1.50;;;;;;;5.30;76.39;100559.41;5044397;28;20092;-60
2021/11/26 01:52:23;;;;;;;9.55;1.70;;;;;;;5.36;76.11;100561.69;5041102;28;20481;-58
2021/11/26 01:54:48;;;;;;;6.68;1.52;;;;;;;5.23;76.58;100544.97;5043002;28;20033;-58
2021/11/26 01:57:16;;;;;;;7.85;1.50;;;;;;;5.03;76.49;100548.69;5038231;28;20073;-58
2021/11/26 01:59:41;;;;;;;6.57;1.92;;;;;;;4.84;76.79;100539.22;5041453;28;20480;-60
2021/11/26 02:02:07;;;;;;;6.90;1.73;;;;;;;4.68;77.98;100539.19;5041486;28;20048;-60
2021/11/26 02:04:32;;;;;;;5.07;1.27;;;;;;;4.54;77.83;100526.00;5035608;28;20389;-59
2021/11/26 02:06:57;;;;;;;5.93;1.50;;;;;;;4.54;76.92;100544.34;5037856;28;20067;-60
2021/11/26 02:09:23;;;;;;;6.38;1.73;;;;;;;4.65;76.31;100528.88;5044278;28;20029;-60
2021/11/26 02:11:48;;;;;;;9.32;1.60;;;;;;;4.58;76.34;100512.66;5042718;28;20126;-59
2021/11/26 02:14:15;;;;;;;6.00;1.92;;;;;;;4.49;76.07;100520.16;5038958;28;20085;-61
2021/11/26 02:16:48;;;;;;;8.57;1.70;;;;;;;4.51;76.22;100500.81;5045370;28;20553;-59
2021/11/26 02:19:13;;;;;;;7.55;1.65;;;;;;;4.55;75.74;100483.16;5045788;28;20052;-58
2021/11/26 02:21:40;;;;;;;6.25;1.63;;;;;;;4.59;76.32;100479.44;5042609;28;20029;-59
2021/11/26 02:24:06;;;;;;;6.88;1.58;;;;;;;4.60;74.67;100463.63;5043939;28;20048;-59
2021/11/26 02:26:50;;;;;;;10.52;2.80;;;;;;;4.48;74.97;100453.84;5042206;28;20063;-59
2021/11/26 02:29:17;;;;;;;10.02;1.88;;;;;;;4.41;75.17;100453.34;5044151;28;20057;-60
2021/11/26 02:31:43;;;;;;;9.02;2.00;;;;;;;4.41;74.76;100447.22;5044252;28;20095;-59
2021/11/26 02:34:09;;;;;;;7.53;1.63;;;;;;;4.41;75.09;100434.13;5043390;28;20021;-59
2021/11/26 02:36:35;;;;;;;10.50;1.85;;;;;;;4.39;75.00;100420.28;5033982;28;20428;-59
2021/11/26 02:39:01;;;;;;;9.10;1.80;;;;;;;4.33;75.29;100408.34;5038926;28;20127;-59
2021/11/26 02:41:27;;;;;;;6.72;2.00;;;;;;;4.31;76.03;100410.22;5042935;28;20078;-58
2021/11/26 02:43:54;;;;;;;10.57;2.10;;;;;;;4.27;76.68;100408.69;5039596;28;20037;-58
2021/11/26 02:46:19;;;;;;;8.10;2.03;;;;;;;4.28;76.99;100399.91;5038413;28;20033;-61
2021/11/26 02:48:45;;;;;;;11.25;2.00;;;;;;;4.28;76.79;100394.66;5038653;28;20033;-61
2021/11/26 02:51:11;;;;;;;8.80;1.80;;;;;;;4.26;76.16;100393.94;5038758;28;20041;-60
2021/11/26 02:53:37;;;;;;;6.55;1.80;;;;;;;4.29;76.28;100391.13;5044725;28;20040;-58
2021/11/26 02:56:02;;;;;;;7.32;2.00;;;;;;;4.29;76.57;100388.50;5039185;28;20041;-57
2021/11/26 02:58:27;;;;;;;8.93;2.00;;;;;;;4.27;76.56;100379.88;5038608;28;20037;-57
2021/11/26 03:00:55;;;;;;;7.57;1.88;;;;;;;4.24;76.32;100366.97;5037379;28;20069;-57
2021/11/26 03:03:20;;;;;;;10.95;2.33;;;;;;;4.17;76.41;100371.69;5042433;28;20059;-59
2021/11/26 03:05:46;;;;;;;7.25;1.85;;;;;;;4.19;76.65;100372.44;5036911;28;20060;-59
2021/11/26 03:08:11;;;;;;;14.45;2.40;;;;;;;4.18;76.58;100367.31;5041112;28;20029;-57
2021/11/26 03:10:37;;;;;;;8.13;1.90;;;;;;;4.15;76.64;100357.00;5036453;28;20351;-60
2021/11/26 03:13:08;;;;;;;10.93;2.20;;;;;;;4.11;76.89;100362.38;5036621;28;20441;-60
2021/11/26 03:15:35;;;;;;;10.32;2.20;;;;;;;4.11;77.12;100351.09;5039644;28;20029;-60
2021/11/26 03:18:01;;;;;;;10.75;2.20;;;;;;;4.06;77.55;100353.94;5034472;28;20036;-60
2021/11/26 03:20:27;;;;;;;5.88;1.60;;;;;;;4.06;77.47;100346.09;5040632;28;20033;-60
2021/11/26 03:22:53;;;;;;;15.43;2.63;;;;;;;4.05;76.85;100328.72;5034741;28;20036;-59
2021/11/26 03:25:19;;;;;;;12.98;2.10;;;;;;;4.04;76.77;100328.78;5037665;28;20508;-59
2021/11/26 03:27:45;;;;;;;12.43;2.20;;;;;;;4.01;77.36;100323.72;5038973;28;20025;-59
2021/11/26 03:30:12;;;;;;;12.00;2.30;;;;;;;4.01;76.57;100306.22;5037503;28;20117;-59
2021/11/26 03:32:38;;;;;;;11.90;2.67;;;;;;;3.99;77.25;100304.63;5038356;28;20397;-59
2021/11/26 03:35:05;;;;;;;15.20;2.53;;;;;;;3.99;76.94;100295.03;5037455;28;20042;-60
2021/11/26 03:37:30;;;;;;;11.18;2.20;;;;;;;4.00;76.09;100296.72;5037396;28;20036;-59
2021/11/26 03:39:56;;;;;;;13.75;2.40;;;;;;;3.98;75.54;100290.72;5038837;28;20033;-59
2021/11/26 03:42:21;;;;;;;11.88;2.30;;;;;;;4.03;75.42;100283.44;5037854;28;20030;-59
2021/11/26 03:44:46;;;;;;;14.52;2.50;;;;;;;4.06;74.58;100278.03;5035401;28;20108;-59
2021/11/26 03:47:12;;;;;;;11.15;2.25;;;;;;;4.03;74.95;100275.59;5040455;28;20041;-59
2021/11/26 03:49:37;;;;;;;14.38;2.60;;;;;;;4.03;74.28;100272.97;5038850;28;20032;-59
2021/11/26 03:52:03;;;;;;;13.32;2.70;;;;;;;4.12;72.49;100275.06;5045197;28;20116;-58
2021/11/26 03:54:28;;;;;;;15.90;2.45;;;;;;;4.13;71.14;100274.16;5045718;28;20029;-58
2021/11/26 03:56:53;;;;;;;15.88;3.05;;;;;;;4.24;70.50;100257.00;5046422;28;20389;-59
2021/11/26 03:59:19;;;;;;;16.52;2.90;;;;;;;4.30;70.48;100264.50;5042766;28;20045;-59
2021/11/26 04:01:44;;;;;;;11.02;2.42;;;;;;;4.34;69.74;100255.53;5042392;28;20347;-61
2021/11/26 04:04:10;;;;;;;15.90;3.03;;;;;;;4.33;69.07;100240.75;5043740;28;20471;-59
2021/11/26 04:06:35;;;;;;;11.98;2.88;;;;;;;4.35;69.07;100243.25;5040341;28;20033;-58
2021/11/26 04:09:00;;;;;;;14.02;2.50;;;;;;;4.37;68.62;100234.38;5048446;28;20115;-58
2021/11/26 04:11:26;;;;;;;13.80;2.50;;;;;;;4.36;69.16;100230.13;5041586;28;20025;-60
2021/11/26 04:13:52;;;;;;;12.35;2.70;;;;;;;4.36;67.70;100219.63;5042793;28;20040;-58
2021/11/26 04:16:17;;;;;;;11.05;2.17;;;;;;;4.33;67.79;100218.97;5047047;28;20061;-58
2021/11/26 04:18:44;;;;;;;12.15;2.28;;;;;;;4.43;67.07;100220.94;5038407;28;20457;-59
2021/11/26 04:21:10;;;;;;;12.55;2.63;;;;;;;4.52;66.29;100213.50;5041330;28;20088;-59
2021/11/26 04:23:35;;;;;;;11.98;2.70;;;;;;;4.51;66.09;100203.94;5044070;28;20025;-58
2021/11/26 04:26:01;;;;;;;13.77;2.33;;;;;;;4.53;65.54;100215.16;5040551;28;20420;-59
2021/11/26 04:28:26;;;;;;;12.82;2.53;;;;;;;4.54;65.09;100204.63;5041312;28;20453;-59
2021/11/26 04:30:52;;;;;;;9.23;2.28;;;;;;;4.55;64.81;100197.59;5038046;28;20106;-58
2021/11/26 04:33:18;;;;;;;14.13;2.60;;;;;;;4.55;64.86;100180.09;5042175;28;20108;-59
2021/11/26 04:35:49;;;;;;;11.82;2.50;;;;;;;4.64;64.75;100185.72;5042492;28;20041;-58
2021/11/26 04:38:16;;;;;;;11.52;2.80;;;;;;;4.60;63.80;100175.41;5039547;28;20488;-58
2021/11/26 04:40:42;;;;;;;16.13;2.38;;;;;;;4.57;62.57;100164.28;5037555;28;20017;-60
2021/11/26 04:43:07;;;;;;;13.55;2.47;;;;;;;4.60;62.03;100164.94;5037668;28;20040;-61
2021/11/26 04:45:32;;;;;;;7.10;1.77;;;;;;;4.66;61.36;100155.00;5045658;28;20034;-59
2021/11/26 04:47:58;;;;;;;9.43;2.45;;;;;;;4.57;60.69;100148.56;5040608;28;20040;-60
2021/11/26 04:50:23;;;;;;;16.17;3.20;;;;;;;4.56;61.35;100139.03;5047198;28;20033;-59
2021/11/26 04:52:49;;;;;;;9.43;2.30;;;;;;;4.57;62.05;100138.09;5035971;28;20042;-60
2021/11/26 04:55:15;;;;;;;10.13;2.40;;;;;;;4.66;61.78;100132.28;5041822;28;20497;-59
2021/11/26 04:57:40;;;;;;;13.27;2.50;;;;;;;4.54;62.50;100123.41;5046139;28;20025;-60
2021/11/26 05:00:07;;;;;;;10.32;2.42;;;;;;;4.47;62.75;100122.06;5039071;28;20462;-59
2021/11/26 05:02:32;;;;;;;13.45;3.10;;;;;;;4.44;62.99;100117.88;5044891;28;20033;-60
2021/11/26 05:04:57;;;;;;;15.93;2.65;;;;;;;4.47;62.52;100106.38;5037924;28;20099;-59
2021/11/26 05:07:24;;;;;;;14.35;2.75;;;;;;;4.43;62.51;100107.50;5042576;28;20032;-59
2021/11/26 05:09:51;;;;;;;11.30;3.22;;;;;;;4.39;63.08;100103.38;5041577;28;20099;-59
2021/11/26 05:12:16;;;;;;;12.60;2.50;;;;;;;4.37;62.96;100090.34;5037492;28;20033;-60
2021/11/26 05:14:42;;;;;;;12.35;2.78;;;;;;;4.34;62.80;100089.72;5044730;28;20489;-59
2021/11/26 05:17:07;;;;;;;6.10;2.00;;;;;;;4.39;63.30;100088.50;5040470;28;20033;-58
2021/11/26 05:19:32;;;;;;;11.90;3.00;;;;;;;4.43;62.72;100074.25;5044100;28;20031;-59
2021/11/26 05:21:58;;;;;;;13.15;2.80;;;;;;;4.45;62.78;100067.16;5045151;28;20124;-59
2021/11/26 05:24:23;;;;;;;11.43;2.42;;;;;;;4.43;62.86;100061.16;5040328;28;20048;-59
2021/11/26 05:26:49;;;;;;;12.07;2.47;;;;;;;4.42;63.00;100050.78;5041099;28;20033;-60
2021/11/26 05:29:14;;;;;;;13.13;2.40;;;;;;;4.34;62.44;100038.16;5037657;28;20469;-60
2021/11/26 05:31:39;;;;;;;12.60;2.60;;;;;;;4.30;62.87;100031.44;5039265;28;20064;-59
2021/11/26 05:34:06;;;;;;;8.15;2.40;;;;;;;4.30;63.52;100028.81;5041774;28;20041;-60
2021/11/26 05:36:33;;;;;;;10.68;2.83;;;;;;;4.30;62.91;100020.97;5042104;28;20056;-61
2021/11/26 05:38:58;;;;;;;9.30;2.60;;;;;;;4.28;63.15;100015.81;5039583;28;20069;-59
2021/11/26 05:41:23;;;;;;;8.68;2.47;;;;;;;4.35;63.21;100013.66;5046072;28;22640;-59
2021/11/26 05:43:49;;;;;;;10.93;2.28;;;;;;;4.29;63.12;100000.94;5037265;28;20040;-61
2021/11/26 05:46:15;;;;;;;7.97;2.10;;;;;;;4.33;62.94;99994.56;5037063;28;20489;-60
2021/11/26 05:48:40;;;;;;;14.20;2.45;;;;;;;4.39;61.91;99993.38;5037217;28;20061;-60
2021/11/26 05:51:06;;;;;;;15.63;3.15;;;;;;;4.32;62.11;99979.78;5038402;28;20036;-60
2021/11/26 05:53:31;;;;;;;10.82;2.42;;;;;;;4.37;62.34;99982.97;5038215;28;20484;-60
2021/11/26 05:55:59;;;;;;;10.05;2.22;;;;;;;4.35;62.56;99977.00;5038062;28;20029;-63
2021/11/26 05:58:24;;;;;;;13.20;2.95;;;;;;;4.32;61.61;99976.34;5038094;28;20038;-59
2021/11/26 06:00:49;;;;;;;17.88;5.30;;;;;;;4.34;61.38;99971.88;5038440;28;20025;-60
2021/11/26 06:03:15;;;;;;;8.25;1.83;;;;;;;4.29;61.42;99967.72;5042106;28;20044;-60
2021/11/26 06:05:40;;;;;;;14.40;3.28;;;;;;;4.26;61.78;99965.31;5038035;28;20025;-60
2021/11/26 06:08:06;;;;;;;11.95;2.67;;;;;;;4.31;61.16;99954.56;5041300;28;20056;-60
2021/11/26 06:10:31;;;;;;;7.78;2.30;;;;;;;4.31;60.84;99949.34;5037001;28;20962;-59
2021/11/26 06:12:56;;;;;;;12.85;2.25;;;;;;;4.36;61.23;99951.66;5039102;28;20033;-60
2021/11/26 06:15:22;;;;;;;11.32;2.40;;;;;;;4.28;61.44;99934.66;5036869;28;20049;-60
2021/11/26 06:17:48;;;;;;;9.50;2.15;;;;;;;4.34;61.08;99930.78;5037303;28;20064;-60
2021/11/26 06:20:15;;;;;;;9.40;2.17;;;;;;;4.39;61.70;99920.03;5037664;28;20071;-61
2021/11/26 06:22:40;;;;;;;9.02;2.60;;;;;;;4.42;61.07;99925.91;5043318;28;20061;-61
2021/11/26 06:25:06;;;;;;;11.38;2.58;;;;;;;4.40;61.25;99913.84;5036755;28;20363;-61
2021/11/26 06:27:32;;;;;;;10.00;1.85;;;;;;;4.35;62.14;99918.53;5038214;28;20029;-61
2021/11/26 06:29:57;;;;;;;10.80;2.25;;;;;;;4.29;62.71;99911.91;5037843;28;20050;-61
2021/11/26 06:32:23;;;;;;;11.20;2.08;;;;;;;4.33;61.83;99899.47;5033105;28;20045;-61
2021/11/26 06:34:49;;;;;;;9.48;2.53;;;;;;;4.35;61.72;99893.19;5037455;28;20446;-60
2021/11/26 06:37:15;;;;;;;11.02;3.05;;;;;;;4.30;62.34;99890.03;5031955;28;20120;-61
2021/11/26 06:39:40;;;;;;;10.10;2.33;;;;;;;4.36;62.53;99884.41;5036237;28;20040;-61
2021/11/26 06:42:06;;;;;;;9.80;2.78;;;;;;;4.31;63.13;99870.78;5040573;28;20091;-61
2021/11/26 06:44:31;;;;;;;12.45;2.40;;;;;;;4.25;63.68;99871.97;5036935;28;20067;-62
2021/11/26 06:46:56;;;;;;;8.40;2.45;;;;;;;4.25;64.51;99876.38;5040576;28;20461;-61
2021/11/26 06:49:22;;;;;;;9.95;2.20;;;;;;;4.33;63.69;99868.06;5038102;28;20132;-61
2021/11/26 06:51:47;;;;;;;8.98;2.40;;;;;;;4.21;64.18;99864.44;5038065;28;20029;-61
2021/11/26 06:54:12;;;;;;;7.63;2.10;;;;;;;4.21;64.35;99857.41;5037898;28;20122;-61
2021/11/26 06:56:38;;;;;;;10.35;2.70;;;;;;;4.19;64.16;99850.59;5038032;28;20462;-60
2021/11/26 06:59:04;;;;;;;13.82;2.50;;;;;;;4.16;64.12;99846.38;5035030;28;20071;-60
2021/11/26 07:01:30;;;;;;;5.20;1.83;;;;;;;4.19;64.69;99856.66;5036057;28;20075;-59
2021/11/26 07:03:56;;;;;;;7.78;2.22;;;;;;;4.20;65.00;99831.34;5034329;28;20128;-61
2021/11/26 07:06:22;;;;;;;18.02;2.80;;;;;;;4.24;64.68;99825.78;5033567;28;21145;-61
2021/11/26 07:08:47;;;;;;;9.43;2.42;;;;;;;4.23;64.52;99821.50;5034599;28;20120;-61
2021/11/26 07:11:13;;;;;;;6.70;1.73;;;;;;;4.20;65.24;99819.06;5030922;28;20112;-60
2021/11/26 07:13:38;;;;;;;10.95;2.10;;;;;;;4.21;64.66;99812.06;5034511;28;20041;-62
2021/11/26 07:16:04;;;;;;;9.98;2.65;;;;;;;4.28;64.19;99797.63;5039845;28;20029;-61
2021/11/26 07:18:29;;;;;;;9.55;1.92;;;;;;;4.39;63.48;99789.94;5031771;28;20099;-61
2021/11/26 07:20:54;;;;;;;7.70;2.10;;;;;;;4.36;64.16;99779.66;5035030;28;20152;-61
2021/11/26 07:23:20;;;;;;;10.68;1.95;;;;;;;4.42;63.96;99778.41;5041683;28;20033;-61
2021/11/26 07:25:45;;;;;;;11.75;2.72;;;;;;;4.35;64.38;99759.66;5041212;28;20045;-60
2021/11/26 07:28:10;;;;;;;9.95;2.20;;;;;;;4.35;64.40;99767.50;5037730;28;20036;-60
2021/11/26 07:30:36;;;;;;;13.48;2.50;;;;;;;4.37;64.32;99764.78;5041002;28;20047;-61
2021/11/26 07:33:01;;;;;;;8.55;2.20;;;;;;;4.36;64.50;99758.72;5039632;28;20125;-62
2021/11/26 07:35:27;;;;;;;13.00;2.40;;;;;;;4.49;64.45;99744.78;5037777;28;20029;-61
2021/11/26 07:37:52;;;;;;;10.25;2.95;;;;;;;4.45;65.18;99763.34;5038179;28;20114;-61
2021/11/26 07:40:17;;;;;;;12.25;2.13;;;;;;;4.43;64.72;99744.25;5037821;28;20037;-61
2021/11/26 07:42:44;;;;;;;12.75;3.33;;;;;;;4.50;65.20;99746.47;5038896;28;20030;-61
2021/11/26 07:45:10;;;;;;;13.35;2.30;;;;;;;4.54;65.23;99734.84;5036822;28;20103;-62
2021/11/26 07:47:37;;;;;;;8.82;2.42;;;;;;;4.61;65.18;99742.19;5035873;28;20040;-60
2021/11/26 07:50:03;;;;;;;12.38;2.50;;;;;;;4.53;65.95;99733.16;5038655;28;20030;-61
2021/11/26 07:52:28;;;;;;;10.13;2.42;;;;;;;4.66;65.04;99728.81;5039037;28;20041;-60
2021/11/26 07:54:54;;;;;;;7.05;2.28;;;;;;;4.62;65.80;99709.00;5041151;28;20330;-60
2021/11/26 07:57:19;;;;;;;10.85;2.70;;;;;;;4.60;65.93;99703.00;5039147;28;20032;-61
2021/11/26 07:59:45;;;;;;;12.35;2.97;;;;;;;4.60;66.27;99697.78;5035762;28;20033;-60
2021/11/26 08:02:10;;;;;;;15.82;2.90;;;;;;;4.60;66.51;99698.59;5038587;28;20044;-59
2021/11/26 08:04:36;;;;;;;7.05;2.33;;;;;;;4.72;66.47;99681.19;5036268;28;20440;-61
2021/11/26 08:07:01;;;;;;;6.78;2.10;;;;;;;4.75;66.91;99688.88;5040004;28;20039;-60
2021/11/26 08:09:27;;;;;;;8.15;2.45;;;;;;;4.85;66.31;99686.44;5037161;28;20075;-60
2021/11/26 08:11:53;;;;;;;9.90;2.60;;;;;;;4.85;67.14;99686.44;5041000;28;20355;-60
2021/11/26 08:14:19;;;;;;;16.17;4.43;;;;;;;4.88;66.97;99653.94;5034578;28;20103;-60
2021/11/26 08:16:45;;;;;;;10.00;2.33;;;;;;;4.83;67.62;99672.63;5036954;28;20439;-60
2021/11/26 08:19:11;;;;;;;12.57;2.40;;;;;;;4.84;67.76;99671.69;5036177;28;20104;-60
2021/11/26 08:21:38;;;;;;;10.02;2.40;;;;;;;4.71;68.68;99642.88;5037597;28;20060;-59
2021/11/26 08:24:04;;;;;;;8.27;2.53;;;;;;;4.73;69.15;99630.47;5037328;28;20134;-61
2021/11/26 08:26:29;;;;;;;10.15;2.00;;;;;;;4.72;69.24;99635.84;5041339;28;20771;-60
2021/11/26 08:28:56;;;;;;;12.98;2.10;;;;;;;4.65;70.01;99632.81;5038065;28;20128;-60
2021/11/26 08:31:21;;;;;;;14.90;2.53;;;;;;;4.55;70.18;99618.66;5037359;28;20025;-59
2021/11/26 08:33:47;;;;;;;9.43;2.40;;;;;;;4.53;70.80;99623.16;5039473;28;20045;-60
2021/11/26 08:36:12;;;;;;;14.60;2.50;;;;;;;4.53;70.79;99618.78;5045339;28;20028;-61
2021/11/26 08:38:37;;;;;;;10.30;2.33;;;;;;;4.50;70.56;99629.44;5048558;28;20033;-61
2021/11/26 08:41:03;;;;;;;9.63;2.50;;;;;;;4.57;69.98;99615.00;5040830;28;20037;-61
2021/11/26 08:43:28;;;;;;;10.88;2.30;;;;;;;4.48;70.14;99628.72;5039431;28;20423;-60
2021/11/26 08:45:53;;;;;;;7.35;2.20;;;;;;;4.52;69.82;99584.84;5039270;28;20493;-61
2021/11/26 08:48:19;;;;;;;9.60;2.38;;;;;;;4.57;69.41;99604.50;5044609;28;20299;-60
2021/11/26 08:50:45;;;;;;;8.18;2.03;;;;;;;4.70;69.25;99577.44;5039593;28;20037;-60
2021/11/26 08:53:11;;;;;;;10.10;2.13;;;;;;;4.70;68.54;99574.81;5037461;28;20045;-60
2021/11/26 08:55:38;;;;;;;8.52;2.08;;;;;;;4.67;68.52;99572.44;5040210;28;20076;-60
2021/11/26 08:58:04;;;;;;;15.85;2.70;;;;;;;4.62;69.01;99557.06;5038684;28;20031;-60
2021/11/26 09:00:32;;;;;;;8.18;2.42;;;;;;;4.62;68.62;99562.28;5037972;28;20045;-60
2021/11/26 09:03:03;;;;;;;11.50;2.40;;;;;;;4.76;68.53;99563.94;5035532;28;20517;-62
2021/11/26 09:05:28;;;;;;;10.57;2.65;;;;;;;4.81;68.75;99556.59;5036018;28;20017;-61
2021/11/26 09:08:02;;;;;;;11.57;2.70;;;;;;;4.69;70.47;99537.31;5036182;28;20041;-61
2021/11/26 09:10:29;;;;;;;8.85;2.72;;;;;;;4.72;70.69;99521.38;5035906;28;20060;-62
2021/11/26 09:12:54;;;;;;;10.35;3.20;;;;;;;4.72;71.30;99536.28;5035342;28;20094;-61
2021/11/26 09:15:20;;;;;;;11.18;3.22;;;;;;;4.72;71.46;99526.63;5039499;28;20025;-61
2021/11/26 09:17:45;;;;;;;9.68;2.90;;;;;;;4.79;71.47;99520.00;5034684;28;20028;-61
2021/11/26 09:20:11;;;;;;;7.30;2.42;;;;;;;4.79;71.42;99514.78;5038715;28;20114;-61
2021/11/26 09:22:37;;;;;;;15.48;3.10;;;;;;;4.68;71.56;99542.69;5034056;28;21001;-61
2021/11/26 09:25:04;;;;;;;9.80;2.95;;;;;;;4.64;71.41;99510.63;5035592;28;20049;-61
2021/11/26 09:27:30;;;;;;;9.68;3.03;;;;;;;4.70;70.55;99515.44;5034992;28;20036;-61
2021/11/26 09:29:55;;;;;;;13.38;2.97;;;;;;;4.68;70.56;99485.88;5039442;28;20029;-63
2021/11/26 09:32:21;;;;;;;14.55;3.00;;;;;;;4.80;70.56;99499.88;5036359;28;20049;-62
2021/11/26 09:34:46;;;;;;;14.88;2.92;;;;;;;4.60;70.57;99520.47;5037233;28;20132;-60
2021/11/26 09:37:13;;;;;;;9.60;2.42;;;;;;;4.76;70.26;99516.75;5037954;28;20028;-58
2021/11/26 09:39:38;;;;;;;11.60;2.95;;;;;;;4.70;70.43;99491.84;5034626;28;20036;-60
2021/11/26 09:42:03;;;;;;;11.45;2.80;;;;;;;4.66;71.72;99482.53;5035637;28;20041;-60
2021/11/26 09:44:33;;;;;;;11.35;2.80;;;;;;;4.54;71.95;99463.28;5037768;28;20474;-58
2021/11/26 09:46:58;;;;;;;16.80;2.85;;;;;;;4.66;71.59;99456.34;5035094;28;20454;-60
2021/11/26 09:49:24;;;;;;;7.70;2.97;;;;;;;4.75;71.76;99445.19;5033114;28;20044;-58
2021/11/26 09:51:49;;;;;;;9.32;2.45;;;;;;;4.74;71.78;99443.50;5034537;28;20049;-57
2021/11/26 09:54:15;;;;;;;9.50;2.30;;;;;;;4.89;71.67;99445.97;5035499;28;20032;-61
2021/11/26 09:56:40;;;;;;;8.88;2.38;;;;;;;4.92;71.50;99432.66;5036420;28;20516;-59
2021/11/26 09:59:05;;;;;;;14.18;2.42;;;;;;;5.02;71.16;99425.78;5036778;28;20029;-59
2021/11/26 10:01:31;;;;;;;9.75;2.30;;;;;;;5.08;70.18;99441.03;5037241;28;20135;-60
2021/11/26 10:03:57;;;;;;;11.88;2.40;;;;;;;5.27;70.10;99403.00;5035047;28;20393;-60
2021/11/26 10:06:26;;;;;;;11.38;2.50;;;;;;;5.26;69.37;99406.56;5033862;28;20029;-59
2021/11/26 10:09:07;;;;;;;9.93;2.30;;;;;;;5.23;69.67;99418.13;5033698;28;20021;-60
2021/11/26 10:11:37;;;;;;;17.23;2.42;;;;;;;5.14;70.37;99378.63;5039287;28;20783;-59
2021/11/26 10:14:27;;;;;;;6.53;2.15;;;;;;;5.04;70.53;99381.94;5037404;28;20067;-59
2021/11/26 10:16:55;;;;;;;6.32;2.22;;;;;;;5.03;69.75;99401.22;5034022;28;20107;-59
2021/11/26 10:19:31;;;;;;;10.85;2.40;;;;;;;5.04;69.48;99374.06;5033687;28;20054;-57
2021/11/26 10:21:56;;;;;;;11.52;2.17;;;;;;;4.96;70.23;99355.47;5037897;28;20026;-60
2021/11/26 10:24:21;;;;;;;10.32;2.60;;;;;;;5.02;70.31;99352.41;5041273;28;20116;-56
2021/11/26 10:26:53;;;;;;;7.25;2.70;;;;;;;4.82;70.46;99342.56;5041135;28;20478;-61
2021/11/26 10:29:36;;;;;;;12.75;2.63;;;;;;;4.88;69.78;99318.50;5034746;28;20374;-60
2021/11/26 10:32:06;;;;;;;7.85;2.17;;;;;;;4.94;69.53;99307.56;5041633;28;20084;-60
2021/11/26 10:34:32;;;;;;;12.88;2.40;;;;;;;4.78;70.16;99316.56;5037429;28;20037;-59
2021/11/26 10:36:57;;;;;;;8.57;2.53;;;;;;;4.88;69.76;99272.19;5041027;28;20064;-59
2021/11/26 10:39:23;;;;;;;10.88;2.75;;;;;;;4.91;70.08;99271.13;5040479;28;20134;-56
2021/11/26 10:41:55;;;;;;;9.02;2.65;;;;;;;4.83;70.50;99252.50;5041296;28;20037;-59
2021/11/26 10:44:36;;;;;;;12.35;2.67;;;;;;;4.85;70.70;99267.16;5041290;28;20120;-60
2021/11/26 11:00:08;;;;;;;15.48;3.80;;;;;;;4.58;71.85;99220.28;5036741;28;20056;-59
2021/11/26 11:02:39;;;;;;;16.20;3.42;;;;;;;4.35;72.00;99209.75;5035606;28;20033;-58
2021/11/26 11:05:07;;;;;;;10.43;3.55;;;;;;;4.33;72.48;99167.13;5043587;28;20060;-59
2021/11/26 11:07:39;;;;;;;13.52;3.97;;;;;;;4.36;72.44;99166.94;5041896;28;20033;-58
2021/11/26 11:10:05;;;;;;;15.90;3.95;;;;;;;4.48;72.12;99159.06;5040241;28;20441;-58
2021/11/26 11:12:33;;;;;;;12.10;3.78;;;;;;;4.47;72.52;99146.94;5039182;28;20501;-58
2021/11/26 11:15:00;;;;;;;12.48;3.72;;;;;;;4.54;72.81;99135.03;5041250;28;20029;-60
2021/11/26 11:17:29;;;;;;;10.90;3.67;;;;;;;4.52;72.70;99156.13;5038638;28;20026;-60
2021/11/26 11:19:57;;;;;;;11.30;3.38;;;;;;;4.39;72.98;99122.16;5036486;28;20056;-59
2021/11/26 11:22:23;;;;;;;11.82;3.00;;;;;;;4.41;72.96;99112.44;5034646;28;20025;-61
2021/11/26 11:24:49;;;;;;;14.95;3.25;;;;;;;4.35;73.44;99101.56;5042675;28;20041;-59
2021/11/26 11:27:14;;;;;;;16.48;4.28;;;;;;;4.33;73.96;99108.72;5038461;28;20531;-57
2021/11/26 11:29:41;;;;;;;13.85;4.10;;;;;;;4.35;73.75;99093.69;5043948;28;20036;-58
2021/11/26 11:32:06;;;;;;;16.15;4.55;;;;;;;4.27;74.04;99079.44;5035546;28;20049;-59
2021/11/26 11:34:32;;;;;;;17.33;4.43;;;;;;;4.19;74.49;99097.47;5038898;28;20050;-60
2021/11/26 11:36:59;;;;;;;17.08;4.13;;;;;;;4.19;74.92;99076.53;5038789;28;20474;-59
2021/11/26 11:39:25;;;;;;;14.68;4.00;;;;;;;4.33;74.90;99062.41;5035961;28;20041;-58